createdAt,value
2022-11-06T00:00:20.231Z,100998.88
2022-11-06T00:02:47.988Z,101011.91
2022-11-06T00:05:34.224Z,101008.28
2022-11-06T00:08:01.967Z,100999.53
2022-11-06T00:10:33.702Z,101000.38
2022-11-06T00:13:10.742Z,100980.44
2022-11-06T00:15:43.756Z,100989.94
2022-11-06T00:18:26.869Z,100986.84
2022-11-06T00:21:10.865Z,100986.84
2022-11-06T00:24:04.680Z,100985.16
2022-11-06T00:26:48.685Z,100982.84
2022-11-06T00:29:43.536Z,100987.88
2022-11-06T00:32:20.957Z,100983.22
2022-11-06T00:35:21.257Z,100982.84
2022-11-06T00:37:54.746Z,100982.75
2022-11-06T00:40:22.609Z,100981.44
2022-11-06T00:42:56.713Z,100995.63
2022-11-06T00:45:25.380Z,101000.75
2022-11-06T00:47:53.448Z,101000.66
2022-11-06T00:50:21.183Z,100996.16
2022-11-06T00:52:48.813Z,100992.63
2022-11-06T00:55:17.725Z,100992.78
2022-11-06T00:57:45.368Z,100989.34
2022-11-06T01:00:17.918Z,100992.78
2022-11-06T01:02:46.234Z,100986.16
2022-11-06T01:05:15.022Z,100986.84
2022-11-06T01:07:42.853Z,100994.56
2022-11-06T01:10:10.888Z,100990.63
2022-11-06T01:12:38.532Z,100988.03
2022-11-06T01:15:07.448Z,100991.19
2022-11-06T01:17:36.966Z,100989.78
2022-11-06T01:20:05.552Z,100983.84
2022-11-06T01:22:33.327Z,100984.69
2022-11-06T01:25:01.074Z,100980.03
2022-11-06T01:27:28.802Z,100978.63
2022-11-06T01:29:56.836Z,100974.63
2022-11-06T01:32:24.622Z,100971.75
2022-11-06T01:34:53.611Z,100967.34
2022-11-06T01:37:21.343Z,100965.13
2022-11-06T01:39:50.381Z,100967.44
2022-11-06T01:42:20.992Z,100967.63
2022-11-06T01:45:22.552Z,100971.53
2022-11-06T01:47:50.603Z,100964.84
2022-11-06T01:50:20.614Z,100960.44
2022-11-06T01:52:50.345Z,100959.63
2022-11-06T01:55:23.406Z,100965.25
2022-11-06T01:57:51.418Z,100971.97
2022-11-06T02:00:22.109Z,100978.06
2022-11-06T02:02:51.241Z,100979.75
2022-11-06T02:05:20.870Z,100971.81
2022-11-06T02:07:49.527Z,100971.63
2022-11-06T02:10:17.606Z,100962.59
2022-11-06T02:12:59.592Z,100961.41
2022-11-06T02:15:36.635Z,100967.81
2022-11-06T02:18:29.433Z,100965.41
2022-11-06T02:21:21.448Z,100959.72
2022-11-06T02:24:08.311Z,100950.84
2022-11-06T02:26:57.919Z,100947.03
2022-11-06T02:29:32.627Z,100942.53
2022-11-06T02:32:05.196Z,100937.50
2022-11-06T02:34:35.000Z,100934.16
2022-11-06T02:37:06.295Z,100945.44
2022-11-06T02:39:37.744Z,100920.28
2022-11-06T02:42:10.111Z,100914.97
2022-11-06T02:44:40.310Z,100922.41
2022-11-06T02:47:11.395Z,100924.72
2022-11-06T02:49:42.865Z,100932.41
2022-11-06T02:52:15.360Z,100920.47
2022-11-06T02:54:48.191Z,100929.84
2022-11-06T02:57:20.527Z,100939.72
2022-11-06T02:59:52.896Z,100928.53
2022-11-06T03:02:25.847Z,100926.22
2022-11-06T03:04:59.281Z,100924.00
2022-11-06T03:07:32.291Z,100930.22
2022-11-06T03:10:00.118Z,100924.72
2022-11-06T03:12:33.212Z,100919.13
2022-11-06T03:15:07.438Z,100913.19
2022-11-06T03:17:42.772Z,100914.63
2022-11-06T03:20:21.627Z,100906.38
2022-11-06T03:22:55.552Z,100899.28
2022-11-06T03:25:27.969Z,100903.44
2022-11-06T03:28:04.172Z,100915.38
2022-11-06T03:30:35.859Z,100907.59
2022-11-06T03:33:11.504Z,100908.03
2022-11-06T03:35:44.651Z,100902.81
2022-11-06T03:38:16.978Z,100900.59
2022-11-06T03:40:48.500Z,100899.75
2022-11-06T03:43:20.373Z,100889.41
2022-11-06T03:45:52.068Z,100905.03
2022-11-06T03:48:24.529Z,100895.28
2022-11-06T03:50:58.311Z,100903.38
2022-11-06T03:53:31.344Z,100904.22
2022-11-06T03:56:03.224Z,100911.09
2022-11-06T03:58:38.619Z,100902.19
2022-11-06T04:01:09.534Z,100903.19
2022-11-06T04:03:43.040Z,100904.03
2022-11-06T04:06:14.963Z,100894.59
2022-11-06T04:09:00.655Z,100901.78
2022-11-06T04:11:51.802Z,100899.91
2022-11-06T04:14:24.116Z,100898.13
2022-11-06T04:16:57.434Z,100886.28
2022-11-06T04:19:25.414Z,100894.19
2022-11-06T04:22:19.225Z,100888.09
2022-11-06T04:25:15.942Z,100881.31
2022-11-06T04:27:59.855Z,100876.91
2022-11-06T04:30:32.940Z,100873.19
2022-11-06T04:33:11.288Z,100873.00
2022-11-06T04:35:50.878Z,100884.69
2022-11-06T04:38:27.315Z,100877.09
2022-11-06T04:41:06.354Z,100886.75
2022-11-06T04:43:42.637Z,100877.66
2022-11-06T04:46:18.495Z,100876.66
2022-11-06T04:48:48.073Z,100882.94
2022-11-06T04:51:19.342Z,100886.75
2022-11-06T04:53:50.949Z,100888.59
2022-11-06T04:56:25.800Z,100887.50
2022-11-06T04:58:53.726Z,100898.69
2022-11-06T05:01:23.100Z,100895.34
2022-11-06T05:03:50.864Z,100892.16
2022-11-06T05:06:18.616Z,100889.75
2022-11-06T05:08:46.592Z,100882.50
2022-11-06T05:11:14.743Z,100884.81
2022-11-06T05:13:42.448Z,100889.56
2022-11-06T05:16:10.145Z,100883.09
2022-11-06T05:18:39.153Z,100882.59
2022-11-06T05:21:24.554Z,100886.41
2022-11-06T05:23:52.304Z,100888.47
2022-11-06T05:26:20.021Z,100883.63
2022-11-06T05:28:47.792Z,100879.06
2022-11-06T05:31:15.449Z,100871.72
2022-11-06T05:33:46.864Z,100878.16
2022-11-06T05:36:18.831Z,100877.69
2022-11-06T05:38:46.824Z,100879.72
2022-11-06T05:41:14.606Z,100881.41
2022-11-06T05:43:42.557Z,100876.09
2022-11-06T05:46:29.556Z,100880.50
2022-11-06T05:48:59.641Z,100877.69
2022-11-06T05:51:27.325Z,100863.69
2022-11-06T05:53:56.406Z,100846.09
2022-11-06T05:56:24.190Z,100858.31
2022-11-06T05:58:51.890Z,100850.47
2022-11-06T06:01:19.634Z,100851.97
2022-11-06T06:03:47.434Z,100839.50
2022-11-06T06:06:16.506Z,100846.16
2022-11-06T06:08:46.625Z,100842.72
2022-11-06T06:11:14.415Z,100845.16
2022-11-06T06:13:42.131Z,100853.59
2022-11-06T06:16:10.054Z,100860.78
2022-11-06T06:18:37.828Z,100856.88
2022-11-06T06:21:06.167Z,100859.94
2022-11-06T06:23:35.358Z,100852.69
2022-11-06T06:26:03.115Z,100853.78
2022-11-06T06:28:31.436Z,100849.50
2022-11-06T06:31:01.690Z,100840.56
2022-11-06T06:33:29.783Z,100846.75
2022-11-06T06:35:57.480Z,100842.06
2022-11-06T06:38:29.982Z,100845.31
2022-11-06T06:41:03.220Z,100833.88
2022-11-06T06:43:31.221Z,100843.16
2022-11-06T06:45:59.975Z,100832.66
2022-11-06T06:48:28.586Z,100828.47
2022-11-06T06:50:57.596Z,100819.16
2022-11-06T06:53:25.584Z,100836.69
2022-11-06T06:55:53.748Z,100830.59
2022-11-06T06:58:23.201Z,100825.59
2022-11-06T07:00:51.244Z,100843.47
2022-11-06T07:03:19.129Z,100842.06
2022-11-06T07:05:47.229Z,100835.28
2022-11-06T07:08:15.209Z,100841.06
2022-11-06T07:10:43.749Z,100831.75
2022-11-06T07:13:12.826Z,100845.72
2022-11-06T07:15:42.245Z,100834.09
2022-11-06T07:18:10.080Z,100839.66
2022-11-06T07:20:39.654Z,100844.63
2022-11-06T07:23:08.278Z,100846.41
2022-11-06T07:25:36.983Z,100842.81
2022-11-06T07:28:06.450Z,100834.03
2022-11-06T07:30:35.333Z,100837.69
2022-11-06T07:33:05.979Z,100838.06
2022-11-06T07:35:35.255Z,100832.47
2022-11-06T07:38:08.749Z,100848.38
2022-11-06T07:40:37.102Z,100836.19
2022-11-06T07:43:06.413Z,100833.41
2022-11-06T07:45:34.790Z,100833.06
2022-11-06T07:48:04.299Z,100831.47
2022-11-06T07:50:32.766Z,100836.59
2022-11-06T07:53:02.652Z,100833.69
2022-11-06T07:55:33.879Z,100824.75
2022-11-06T07:58:03.202Z,100832.75
2022-11-06T08:00:31.043Z,100826.31
2022-11-06T08:02:58.833Z,100826.22
2022-11-06T08:05:28.020Z,100829.97
2022-11-06T08:07:57.701Z,100826.78
2022-11-06T08:10:25.413Z,100818.25
2022-11-06T08:12:53.115Z,100825.88
2022-11-06T08:15:20.904Z,100819.81
2022-11-06T08:17:48.581Z,100825.59
2022-11-06T08:20:16.532Z,100817.47
2022-11-06T08:22:45.550Z,100822.97
2022-11-06T08:25:14.035Z,100825.47
2022-11-06T08:27:41.702Z,100820.75
2022-11-06T08:30:10.895Z,100814.31
2022-11-06T08:32:38.555Z,100803.84
2022-11-06T08:35:07.607Z,100808.91
2022-11-06T08:37:35.357Z,100821.75
2022-11-06T08:40:05.171Z,100824.00
2022-11-06T08:42:32.833Z,100824.00
2022-11-06T08:45:00.537Z,100824.81
2022-11-06T08:47:28.556Z,100822.84
2022-11-06T08:49:56.627Z,100816.94
2022-11-06T08:52:24.379Z,100815.91
2022-11-06T08:54:52.321Z,100820.63
2022-11-06T08:57:21.475Z,100815.34
2022-11-06T08:59:49.190Z,100815.22
2022-11-06T09:02:17.098Z,100811.84
2022-11-06T09:04:45.666Z,100809.81
2022-11-06T09:07:13.467Z,100809.34
2022-11-06T09:09:41.205Z,100795.63
2022-11-06T09:12:09.299Z,100793.19
2022-11-06T09:14:39.934Z,100794.53
2022-11-06T09:17:07.749Z,100795.34
2022-11-06T09:19:35.574Z,100792.84
2022-11-06T09:22:03.352Z,100797.84
2022-11-06T09:24:57.109Z,100801.59
2022-11-06T09:27:19.052Z,100796.38
2022-11-06T09:29:49.180Z,100795.63
2022-11-06T09:32:16.905Z,100790.50
2022-11-06T09:34:44.657Z,100787.31
2022-11-06T09:37:12.379Z,100779.06
2022-11-06T09:39:40.106Z,100767.72
2022-11-06T09:42:23.915Z,100762.84
2022-11-06T09:45:04.370Z,100759.84
2022-11-06T09:47:37.288Z,100750.50
2022-11-06T09:50:08.916Z,100755.16
2022-11-06T09:52:43.696Z,100758.69
2022-11-06T09:55:17.086Z,100761.03
2022-11-06T09:57:49.404Z,100755.63
2022-11-06T10:00:19.542Z,100753.44
2022-11-06T10:02:51.007Z,100756.22
2022-11-06T10:05:26.188Z,100756.09
2022-11-06T10:07:56.847Z,100755.94
2022-11-06T10:10:31.842Z,100756.31
2022-11-06T10:13:17.501Z,100753.25
2022-11-06T10:15:53.981Z,100744.09
2022-11-06T10:18:35.210Z,100742.88
2022-11-06T10:21:11.201Z,100742.50
2022-11-06T10:23:46.668Z,100741.91
2022-11-06T10:26:18.040Z,100736.72
2022-11-06T10:29:12.535Z,100740.03
2022-11-06T10:31:49.556Z,100732.75
2022-11-06T10:34:21.478Z,100732.97
2022-11-06T10:36:53.855Z,100727.56
2022-11-06T10:39:24.622Z,100725.69
2022-11-06T10:41:56.997Z,100734.75
2022-11-06T10:44:28.604Z,100729.97
2022-11-06T10:47:04.644Z,100716.41
2022-11-06T10:49:41.247Z,100722.84
2022-11-06T10:52:22.691Z,100722.16
2022-11-06T10:55:04.101Z,100706.75
2022-11-06T10:57:40.629Z,100701.16
2022-11-06T11:00:12.203Z,100705.53
2022-11-06T11:02:46.701Z,100704.31
2022-11-06T11:05:17.920Z,100700.56
2022-11-06T11:07:48.506Z,100697.88
2022-11-06T11:10:28.271Z,100698.47
2022-11-06T11:12:57.842Z,100699.56
2022-11-06T11:15:28.040Z,100693.50
2022-11-06T11:18:17.519Z,100696.84
2022-11-06T11:20:46.940Z,100682.19
2022-11-06T11:23:18.620Z,100675.13
2022-11-06T11:25:48.730Z,100667.66
2022-11-06T11:28:25.548Z,100658.94
2022-11-06T11:30:55.705Z,100655.81
2022-11-06T11:33:27.108Z,100649.16
2022-11-06T11:35:55.587Z,100649.38
2022-11-06T11:38:25.853Z,100650.44
2022-11-06T11:41:05.942Z,100645.69
2022-11-06T11:43:33.910Z,100639.44
2022-11-06T11:46:19.244Z,100636.97
2022-11-06T11:48:50.515Z,100633.66
2022-11-06T11:51:36.848Z,100627.41
2022-11-06T11:54:07.984Z,100631.19
2022-11-06T11:57:03.418Z,100621.59
2022-11-06T11:59:37.885Z,100613.66
2022-11-06T12:02:15.569Z,100614.91
2022-11-06T12:04:48.716Z,100596.47
2022-11-06T12:07:25.880Z,100600.84
2022-11-06T12:09:53.919Z,100598.94
2022-11-06T12:12:23.951Z,100599.25
2022-11-06T12:15:19.439Z,100587.09
2022-11-06T12:17:53.811Z,100585.34
2022-11-06T12:20:27.439Z,100582.09
2022-11-06T12:22:58.102Z,100578.44
2022-11-06T12:25:33.655Z,100586.25
2022-11-06T12:28:03.910Z,100577.44
2022-11-06T12:30:33.922Z,100580.03
2022-11-06T12:33:07.083Z,100568.31
2022-11-06T12:35:40.381Z,100571.69
2022-11-06T12:38:20.271Z,100571.81
2022-11-06T12:40:51.822Z,100556.31
2022-11-06T12:43:27.032Z,100561.94
2022-11-06T12:46:04.677Z,100547.91
2022-11-06T12:48:47.957Z,100543.34
2022-11-06T12:51:28.854Z,100538.84
2022-11-06T12:54:08.825Z,100540.56
2022-11-06T12:56:47.829Z,100539.16
2022-11-06T12:59:31.747Z,100535.41
2022-11-06T13:02:16.708Z,100532.72
2022-11-06T13:04:53.608Z,100526.69
2022-11-06T13:07:59.781Z,100529.19
2022-11-06T13:10:37.745Z,100521.31
2022-11-06T13:13:22.707Z,100512.75
2022-11-06T13:15:56.072Z,100517.78
2022-11-06T13:18:29.461Z,100509.84
2022-11-06T13:21:01.486Z,100504.03
2022-11-06T13:23:36.236Z,100507.63
2022-11-06T13:26:10.550Z,100492.44
2022-11-06T13:28:42.395Z,100481.34
2022-11-06T13:31:14.609Z,100477.59
2022-11-06T13:33:48.340Z,100478.84
2022-11-06T13:36:16.937Z,100473.69
2022-11-06T13:38:53.471Z,100471.59
2022-11-06T13:41:24.628Z,100471.19
2022-11-06T13:43:57.745Z,100459.09
2022-11-06T13:46:32.998Z,100458.28
2022-11-06T13:49:09.801Z,100460.16
2022-11-06T13:51:47.455Z,100444.94
2022-11-06T13:54:26.835Z,100454.34
2022-11-06T13:57:24.855Z,100442.03
2022-11-06T14:00:17.822Z,100431.59
2022-11-06T14:03:30.414Z,100429.75
2022-11-06T14:06:03.207Z,100423.50
2022-11-06T14:08:40.643Z,100408.28
2022-11-06T14:11:19.164Z,100404.34
2022-11-06T14:13:59.790Z,100402.66
2022-11-06T14:16:30.702Z,100404.72
2022-11-06T14:19:02.792Z,100402.41
2022-11-06T14:21:46.123Z,100412.25
2022-11-06T14:24:33.375Z,100419.53
2022-11-06T14:27:03.885Z,100422.88
2022-11-06T14:29:59.341Z,100421.84
2022-11-06T14:32:42.492Z,100400.31
2022-11-06T14:35:50.198Z,100403.25
2022-11-06T14:38:36.499Z,100391.19
2022-11-06T14:41:50.100Z,100398.06
2022-11-06T14:44:46.030Z,100386.38
2022-11-06T14:47:28.433Z,100390.13
2022-11-06T14:49:58.902Z,100392.44
2022-11-06T14:52:27.262Z,100377.63
2022-11-06T14:55:04.395Z,100385.78
2022-11-06T14:57:42.264Z,100381.63
2022-11-06T15:00:16.775Z,100379.09
2022-11-06T15:02:45.297Z,100378.06
2022-11-06T15:05:19.264Z,100389.56
2022-11-06T15:08:06.209Z,100393.31
2022-11-06T15:10:54.947Z,100390.59
2022-11-06T15:13:29.960Z,100397.91
2022-11-06T15:16:13.256Z,100398.53
2022-11-06T15:18:45.807Z,100387.06
2022-11-06T15:21:22.142Z,100387.72
2022-11-06T15:23:59.023Z,100384.16
2022-11-06T15:26:30.254Z,100369.78
2022-11-06T15:29:12.353Z,100368.09
2022-11-06T15:31:43.537Z,100372.47
2022-11-06T15:34:19.951Z,100375.19
2022-11-06T15:36:52.286Z,100380.63
2022-11-06T15:39:25.014Z,100375.41
2022-11-06T15:41:53.085Z,100375.19
2022-11-06T15:44:23.083Z,100385.41
2022-11-06T15:46:56.265Z,100392.72
2022-11-06T15:49:23.975Z,100389.38
2022-11-06T15:51:53.784Z,100369.56
2022-11-06T15:54:36.485Z,100365.19
2022-11-06T15:57:09.105Z,100366.44
2022-11-06T15:59:36.877Z,100365.44
2022-11-06T16:02:14.888Z,100357.09
2022-11-06T16:04:44.249Z,100351.03
2022-11-06T16:07:12.560Z,100348.34
2022-11-06T16:09:43.181Z,100345.03
2022-11-06T16:12:13.990Z,100342.72
2022-11-06T16:14:44.104Z,100329.19
2022-11-06T16:17:18.508Z,100321.28
2022-11-06T16:19:48.486Z,100327.75
2022-11-06T16:22:19.433Z,100318.59
2022-11-06T16:24:50.785Z,100307.34
2022-11-06T16:27:19.283Z,100310.25
2022-11-06T16:29:49.768Z,100309.84
2022-11-06T16:32:21.707Z,100310.91
2022-11-06T16:34:49.677Z,100305.91
2022-11-06T16:37:38.312Z,100317.16
2022-11-06T16:40:22.866Z,100315.06
2022-11-06T16:43:02.483Z,100309.66
2022-11-06T16:45:31.124Z,100302.34
2022-11-06T16:48:35.497Z,100300.28
2022-11-06T16:51:08.986Z,100291.94
2022-11-06T16:53:55.251Z,100294.19
2022-11-06T16:56:28.935Z,100309.63
2022-11-06T16:59:02.128Z,100291.06
2022-11-06T17:01:39.023Z,100283.78
2022-11-06T17:04:14.621Z,100272.94
2022-11-06T17:06:45.415Z,100260.00
2022-11-06T17:09:30.130Z,100277.53
2022-11-06T17:11:59.745Z,100286.28
2022-11-06T17:14:27.981Z,100285.47
2022-11-06T17:16:58.059Z,100278.38
2022-11-06T17:19:28.579Z,100296.94
2022-11-06T17:21:56.661Z,100290.25
2022-11-06T17:24:36.370Z,100276.28
2022-11-06T17:27:06.046Z,100281.31
2022-11-06T17:29:35.962Z,100276.53
2022-11-06T17:32:04.412Z,100282.38
2022-11-06T17:34:33.542Z,100284.03
2022-11-06T17:37:01.382Z,100286.56
2022-11-06T17:39:29.112Z,100260.06
2022-11-06T17:41:56.778Z,100269.44
2022-11-06T17:44:24.428Z,100261.53
2022-11-06T17:46:52.117Z,100268.22
2022-11-06T17:49:19.788Z,100263.03
2022-11-06T17:51:53.288Z,100267.22
2022-11-06T17:54:22.913Z,100269.06
2022-11-06T17:56:51.415Z,100266.78
2022-11-06T17:59:19.344Z,100262.19
2022-11-06T18:01:50.340Z,100256.78
2022-11-06T18:04:19.575Z,100262.19
2022-11-06T18:06:50.850Z,100258.66
2022-11-06T18:09:19.762Z,100257.00
2022-11-06T18:11:50.237Z,100261.56
2022-11-06T18:14:18.546Z,100259.91
2022-11-06T18:16:46.445Z,100268.66
2022-11-06T18:19:17.271Z,100261.78
2022-11-06T18:21:45.173Z,100242.41
2022-11-06T18:24:14.377Z,100237.78
2022-11-06T18:26:42.213Z,100233.00
2022-11-06T18:29:11.369Z,100238.88
2022-11-06T18:31:39.077Z,100233.25
2022-11-06T18:34:07.062Z,100228.25
2022-11-06T18:36:36.649Z,100214.72
2022-11-06T18:39:04.780Z,100204.09
2022-11-06T18:41:34.444Z,100225.13
2022-11-06T18:44:02.540Z,100208.88
2022-11-06T18:46:30.754Z,100205.97
2022-11-06T18:48:59.000Z,100206.41
2022-11-06T18:51:35.093Z,100201.59
2022-11-06T18:54:05.707Z,100218.06
2022-11-06T18:56:38.708Z,100211.19
2022-11-06T18:59:14.158Z,100206.41
2022-11-06T19:01:41.962Z,100212.41
2022-11-06T19:04:10.615Z,100211.38
2022-11-06T19:06:40.082Z,100206.78
2022-11-06T19:09:08.844Z,100210.53
2022-11-06T19:11:38.206Z,100216.38
2022-11-06T19:14:05.966Z,100217.41
2022-11-06T19:16:33.700Z,100221.56
2022-11-06T19:19:05.399Z,100220.28
2022-11-06T19:21:34.389Z,100209.66
2022-11-06T19:24:04.550Z,100205.50
2022-11-06T19:26:34.616Z,100210.72
2022-11-06T19:29:04.963Z,100214.25
2022-11-06T19:31:33.642Z,100208.63
2022-11-06T19:34:03.133Z,100208.19
2022-11-06T19:36:31.857Z,100183.03
2022-11-06T19:39:00.082Z,100188.44
2022-11-06T19:41:32.640Z,100180.94
2022-11-06T19:44:04.332Z,100184.31
2022-11-06T19:46:36.068Z,100186.78
2022-11-06T19:49:06.515Z,100197.59
2022-11-06T19:51:37.339Z,100190.53
2022-11-06T19:54:06.013Z,100191.16
2022-11-06T19:56:34.687Z,100192.59
2022-11-06T19:59:06.547Z,100183.81
2022-11-06T20:01:34.746Z,100174.63
2022-11-06T20:04:02.799Z,100183.78
2022-11-06T20:06:30.667Z,100180.03
2022-11-06T20:08:59.517Z,100186.69
2022-11-06T20:11:27.365Z,100176.09
2022-11-06T20:13:56.162Z,100151.91
2022-11-06T20:16:26.593Z,100126.94
2022-11-06T20:18:57.066Z,100120.94
2022-11-06T20:21:27.925Z,100126.75
2022-11-06T20:23:56.305Z,100126.19
2022-11-06T20:26:24.888Z,100128.09
2022-11-06T20:28:53.486Z,100133.31
2022-11-06T20:31:23.043Z,100155.19
2022-11-06T20:33:53.538Z,100181.84
2022-11-06T20:36:23.629Z,100183.09
2022-11-06T20:38:52.936Z,100200.16
2022-11-06T20:41:20.853Z,100193.75
2022-11-06T20:43:48.747Z,100196.25
2022-11-06T20:46:18.468Z,100191.41
2022-11-06T20:48:46.624Z,100180.38
2022-11-06T20:51:17.988Z,100169.56
2022-11-06T20:53:46.400Z,100158.53
2022-11-06T20:56:16.014Z,100154.56
2022-11-06T20:58:44.542Z,100144.56
2022-11-06T21:01:17.138Z,100127.97
2022-11-06T21:03:45.972Z,100135.88
2022-11-06T21:06:15.740Z,100133.59
2022-11-06T21:08:44.354Z,100134.81
2022-11-06T21:11:16.622Z,100136.28
2022-11-06T21:13:46.357Z,100137.75
2022-11-06T21:16:16.633Z,100144.78
2022-11-06T21:18:45.142Z,100151.06
2022-11-06T21:21:16.715Z,100140.63
2022-11-06T21:23:45.122Z,100148.75
2022-11-06T21:26:15.441Z,100147.72
2022-11-06T21:28:44.242Z,100164.16
2022-11-06T21:31:13.165Z,100163.50
2022-11-06T21:33:41.852Z,100161.66
2022-11-06T21:36:11.936Z,100170.56
2022-11-06T21:38:41.708Z,100165.97
2022-11-06T21:41:13.661Z,100181.19
2022-11-06T21:43:42.064Z,100177.22
2022-11-06T21:46:12.420Z,100180.78
2022-11-06T21:48:49.081Z,100184.31
2022-11-06T21:51:20.128Z,100179.94
2022-11-06T21:54:07.596Z,100194.31
2022-11-06T21:56:35.932Z,100179.94
2022-11-06T21:59:06.124Z,100161.66
2022-11-06T22:01:34.438Z,100168.09
2022-11-06T22:04:02.346Z,100161.03
2022-11-06T22:06:30.994Z,100153.97
2022-11-06T22:09:02.040Z,100158.94
2022-11-06T22:11:31.673Z,100158.53
2022-11-06T22:14:02.592Z,100162.25
2022-11-06T22:16:32.515Z,100156.47
2022-11-06T22:19:00.941Z,100157.50
2022-11-06T22:21:30.723Z,100162.25
2022-11-06T22:24:00.098Z,100175.19
2022-11-06T22:26:30.052Z,100172.91
2022-11-06T22:28:59.708Z,100173.72
2022-11-06T22:31:28.254Z,100163.72
2022-11-06T22:33:56.771Z,100173.28
2022-11-06T22:36:24.773Z,100169.34
2022-11-06T22:38:53.087Z,100161.66
2022-11-06T22:41:24.458Z,100166.03
2022-11-06T22:43:52.999Z,100176.00
2022-11-06T22:46:23.544Z,100175.78
2022-11-06T22:48:52.085Z,100168.75
2022-11-06T22:51:22.435Z,100163.94
2022-11-06T22:53:51.269Z,100169.78
2022-11-06T22:56:20.026Z,100164.56
2022-11-06T22:58:53.305Z,100171.03
2022-11-06T23:01:22.928Z,100164.34
2022-11-06T23:03:50.805Z,100159.97
2022-11-06T23:06:18.687Z,100167.50
2022-11-06T23:08:47.272Z,100166.88
2022-11-06T23:11:17.206Z,100161.44
2022-11-06T23:13:45.591Z,100169.59
2022-11-06T23:16:17.929Z,100169.41
2022-11-06T23:18:46.177Z,100175.63
2022-11-06T23:21:17.721Z,100170.66
2022-11-06T23:23:46.447Z,100177.50
2022-11-06T23:26:15.480Z,100178.53
2022-11-06T23:28:43.874Z,100188.53
2022-11-06T23:31:14.857Z,100176.22
2022-11-06T23:33:42.886Z,100187.91
2022-11-06T23:36:13.287Z,100197.69
2022-11-06T23:38:41.737Z,100189.97
2022-11-06T23:41:25.412Z,100196.44
2022-11-06T23:43:53.266Z,100187.69
2022-11-06T23:46:22.375Z,100187.69
2022-11-06T23:48:50.134Z,100186.88
2022-11-06T23:51:19.381Z,100186.88
2022-11-06T23:53:47.116Z,100186.44
2022-11-06T23:56:15.237Z,100192.88
2022-11-06T23:58:43.517Z,100191.22
